Yanzhou, China
Current Conditions -  °F | °C
As of 10:00 PM on Saturday 22 Nov 2014 (Local Time) from ZSJN Reporting Station
Haze Haze  
Wind Chill: 46°   Ceiling: Unl
Heat Index: 48°   Visibility: 1.2mi
Dew Point: 36°   Wind: 4mph
Humidity: 62%   Direction: 90°E
Pressure: 30.24"   Gusts: NA
Location:  35.55°N, 116.82°E
Report Text: ZSJN 221400Z 09002MPS 2000 HZ NSC 09/02 Q1024 NOSIG
Loading
Personal Weather Stations






























Interactive Weather Map New forecast layout! Learn more

10-Day Weather Forecast

Advertisements
Track Severe Weather on mobile